sensor_id;sensor_type;location;lat;lon;timestamp;P1;durP1;ratioP1;P2;durP2;ratioP2
74935;SDS011;63501;55.570;37.488;2022-10-17T00:01:00;6.07;;;2.90;;
74935;SDS011;63501;55.570;37.488;2022-10-17T00:03:25;5.75;;;3.15;;
74935;SDS011;63501;55.570;37.488;2022-10-17T00:05:51;3.92;;;2.58;;
74935;SDS011;63501;55.570;37.488;2022-10-17T00:08:16;5.85;;;3.30;;
74935;SDS011;63501;55.570;37.488;2022-10-17T00:10:43;3.65;;;2.70;;
74935;SDS011;63501;55.570;37.488;2022-10-17T00:13:09;4.88;;;2.92;;
74935;SDS011;63501;55.570;37.488;2022-10-17T00:15:35;5.70;;;2.63;;
74935;SDS011;63501;55.570;37.488;2022-10-17T00:18:00;5.40;;;3.03;;
74935;SDS011;63501;55.570;37.488;2022-10-17T00:20:26;5.55;;;2.60;;
74935;SDS011;63501;55.570;37.488;2022-10-17T00:22:51;6.15;;;2.88;;
74935;SDS011;63501;55.570;37.488;2022-10-17T00:25:17;5.32;;;2.88;;
74935;SDS011;63501;55.570;37.488;2022-10-17T00:27:42;6.43;;;2.80;;
74935;SDS011;63501;55.570;37.488;2022-10-17T00:30:12;4.13;;;2.88;;
74935;SDS011;63501;55.570;37.488;2022-10-17T00:32:39;6.35;;;3.38;;
74935;SDS011;63501;55.570;37.488;2022-10-17T00:35:05;5.43;;;2.60;;
74935;SDS011;63501;55.570;37.488;2022-10-17T00:37:31;5.13;;;2.50;;
74935;SDS011;63501;55.570;37.488;2022-10-17T00:39:57;3.95;;;2.92;;
74935;SDS011;63501;55.570;37.488;2022-10-17T00:42:24;5.18;;;2.53;;
74935;SDS011;63501;55.570;37.488;2022-10-17T00:44:56;5.10;;;2.45;;
74935;SDS011;63501;55.570;37.488;2022-10-17T00:47:25;4.10;;;2.70;;
74935;SDS011;63501;55.570;37.488;2022-10-17T00:49:50;4.57;;;2.72;;
74935;SDS011;63501;55.570;37.488;2022-10-17T00:52:18;4.18;;;2.42;;
74935;SDS011;63501;55.570;37.488;2022-10-17T00:54:50;3.63;;;2.40;;
74935;SDS011;63501;55.570;37.488;2022-10-17T00:57:20;4.90;;;2.70;;
74935;SDS011;63501;55.570;37.488;2022-10-17T00:59:47;4.63;;;2.42;;
74935;SDS011;63501;55.570;37.488;2022-10-17T01:02:17;6.03;;;2.45;;
74935;SDS011;63501;55.570;37.488;2022-10-17T01:04:45;3.75;;;2.13;;
74935;SDS011;63501;55.570;37.488;2022-10-17T01:07:13;3.50;;;2.22;;
74935;SDS011;63501;55.570;37.488;2022-10-17T01:09:38;3.75;;;2.67;;
74935;SDS011;63501;55.570;37.488;2022-10-17T01:14:53;4.75;;;2.63;;
74935;SDS011;63501;55.570;37.488;2022-10-17T01:26:35;5.18;;;2.80;;
74935;SDS011;63501;55.570;37.488;2022-10-17T01:29:45;3.70;;;2.42;;
74935;SDS011;63501;55.570;37.488;2022-10-17T01:32:38;5.38;;;2.70;;
74935;SDS011;63501;55.570;37.488;2022-10-17T01:36:18;7.45;;;2.80;;
74935;SDS011;63501;55.570;37.488;2022-10-17T01:38:22;6.25;;;3.00;;
74935;SDS011;63501;55.570;37.488;2022-10-17T01:40:55;5.90;;;2.70;;
74935;SDS011;63501;55.570;37.488;2022-10-17T01:43:36;4.60;;;2.97;;
74935;SDS011;63501;55.570;37.488;2022-10-17T01:46:15;4.35;;;2.67;;
74935;SDS011;63501;55.570;37.488;2022-10-17T01:48:48;4.22;;;2.70;;
74935;SDS011;63501;55.570;37.488;2022-10-17T01:51:18;4.57;;;3.33;;
74935;SDS011;63501;55.570;37.488;2022-10-17T01:54:00;3.85;;;2.53;;
74935;SDS011;63501;55.570;37.488;2022-10-17T01:56:29;6.22;;;3.63;;
74935;SDS011;63501;55.570;37.488;2022-10-17T01:59:02;4.13;;;2.58;;
74935;SDS011;63501;55.570;37.488;2022-10-17T02:01:34;5.63;;;2.80;;
74935;SDS011;63501;55.570;37.488;2022-10-17T02:04:02;5.55;;;2.50;;
74935;SDS011;63501;55.570;37.488;2022-10-17T02:06:32;4.68;;;2.55;;
74935;SDS011;63501;55.570;37.488;2022-10-17T02:08:59;5.20;;;2.95;;
74935;SDS011;63501;55.570;37.488;2022-10-17T02:11:25;4.75;;;3.20;;
74935;SDS011;63501;55.570;37.488;2022-10-17T02:19:33;4.18;;;2.70;;
74935;SDS011;63501;55.570;37.488;2022-10-17T02:22:16;3.90;;;2.53;;
74935;SDS011;63501;55.570;37.488;2022-10-17T02:27:16;4.97;;;3.03;;
74935;SDS011;63501;55.570;37.488;2022-10-17T02:29:55;4.93;;;2.63;;
74935;SDS011;63501;55.570;37.488;2022-10-17T02:32:32;4.40;;;2.70;;
74935;SDS011;63501;55.570;37.488;2022-10-17T02:35:03;4.10;;;2.53;;
74935;SDS011;63501;55.570;37.488;2022-10-17T02:37:33;4.78;;;2.53;;
74935;SDS011;63501;55.570;37.488;2022-10-17T02:40:00;4.70;;;2.45;;
74935;SDS011;63501;55.570;37.488;2022-10-17T02:42:28;4.10;;;3.05;;
74935;SDS011;63501;55.570;37.488;2022-10-17T02:44:56;4.57;;;2.42;;
74935;SDS011;63501;55.570;37.488;2022-10-17T02:47:26;6.53;;;2.60;;
74935;SDS011;63501;55.570;37.488;2022-10-17T02:49:56;5.93;;;2.50;;
74935;SDS011;63501;55.570;37.488;2022-10-17T03:00:16;5.68;;;2.80;;
74935;SDS011;63501;55.570;37.488;2022-10-17T03:02:47;5.57;;;2.72;;
74935;SDS011;63501;55.570;37.488;2022-10-17T03:05:18;4.43;;;2.92;;
74935;SDS011;63501;55.570;37.488;2022-10-17T03:07:46;5.25;;;2.53;;
74935;SDS011;63501;55.570;37.488;2022-10-17T03:10:12;5.82;;;3.10;;
74935;SDS011;63501;55.570;37.488;2022-10-17T03:12:38;3.75;;;2.10;;
74935;SDS011;63501;55.570;37.488;2022-10-17T03:15:03;3.83;;;2.45;;
74935;SDS011;63501;55.570;37.488;2022-10-17T03:17:30;6.32;;;2.55;;
74935;SDS011;63501;55.570;37.488;2022-10-17T03:19:55;5.22;;;2.55;;
74935;SDS011;63501;55.570;37.488;2022-10-17T03:22:21;6.90;;;3.08;;
74935;SDS011;63501;55.570;37.488;2022-10-17T03:24:47;4.10;;;2.47;;
74935;SDS011;63501;55.570;37.488;2022-10-17T03:27:12;3.65;;;2.53;;
74935;SDS011;63501;55.570;37.488;2022-10-17T03:29:38;4.78;;;2.47;;
74935;SDS011;63501;55.570;37.488;2022-10-17T03:32:03;5.55;;;2.55;;
74935;SDS011;63501;55.570;37.488;2022-10-17T03:34:29;4.53;;;2.63;;
74935;SDS011;63501;55.570;37.488;2022-10-17T03:36:54;5.50;;;3.05;;
74935;SDS011;63501;55.570;37.488;2022-10-17T03:39:20;4.78;;;2.65;;
74935;SDS011;63501;55.570;37.488;2022-10-17T03:41:46;6.10;;;2.92;;
74935;SDS011;63501;55.570;37.488;2022-10-17T03:44:11;5.95;;;2.88;;
74935;SDS011;63501;55.570;37.488;2022-10-17T03:46:36;5.60;;;3.25;;
74935;SDS011;63501;55.570;37.488;2022-10-17T03:49:02;5.13;;;2.63;;
74935;SDS011;63501;55.570;37.488;2022-10-17T03:51:27;5.55;;;3.28;;
74935;SDS011;63501;55.570;37.488;2022-10-17T03:53:53;4.53;;;2.80;;
74935;SDS011;63501;55.570;37.488;2022-10-17T03:56:20;5.07;;;3.00;;
74935;SDS011;63501;55.570;37.488;2022-10-17T03:58:47;5.90;;;3.10;;
74935;SDS011;63501;55.570;37.488;2022-10-17T04:01:14;5.55;;;2.95;;
74935;SDS011;63501;55.570;37.488;2022-10-17T04:03:41;6.10;;;3.13;;
74935;SDS011;63501;55.570;37.488;2022-10-17T04:06:07;5.18;;;2.83;;
74935;SDS011;63501;55.570;37.488;2022-10-17T04:08:36;6.15;;;2.85;;
74935;SDS011;63501;55.570;37.488;2022-10-17T04:11:02;6.68;;;2.85;;
74935;SDS011;63501;55.570;37.488;2022-10-17T04:13:30;5.47;;;2.80;;
74935;SDS011;63501;55.570;37.488;2022-10-17T04:15:58;5.65;;;2.80;;
74935;SDS011;63501;55.570;37.488;2022-10-17T04:18:29;4.47;;;3.00;;
74935;SDS011;63501;55.570;37.488;2022-10-17T04:20:54;5.68;;;3.30;;
74935;SDS011;63501;55.570;37.488;2022-10-17T04:23:20;6.00;;;2.65;;
74935;SDS011;63501;55.570;37.488;2022-10-17T04:25:46;5.38;;;3.10;;
74935;SDS011;63501;55.570;37.488;2022-10-17T04:28:12;4.30;;;3.00;;
74935;SDS011;63501;55.570;37.488;2022-10-17T04:30:38;7.85;;;3.72;;
74935;SDS011;63501;55.570;37.488;2022-10-17T04:33:04;6.82;;;3.10;;
74935;SDS011;63501;55.570;37.488;2022-10-17T04:35:30;5.75;;;3.25;;
74935;SDS011;63501;55.570;37.488;2022-10-17T04:37:55;6.13;;;3.30;;
74935;SDS011;63501;55.570;37.488;2022-10-17T04:40:21;6.95;;;3.13;;
74935;SDS011;63501;55.570;37.488;2022-10-17T04:42:47;5.32;;;3.55;;
74935;SDS011;63501;55.570;37.488;2022-10-17T04:45:12;5.70;;;3.08;;
74935;SDS011;63501;55.570;37.488;2022-10-17T04:47:38;8.27;;;3.15;;
74935;SDS011;63501;55.570;37.488;2022-10-17T04:50:03;6.10;;;3.05;;
74935;SDS011;63501;55.570;37.488;2022-10-17T04:52:29;5.88;;;3.10;;
74935;SDS011;63501;55.570;37.488;2022-10-17T04:54:56;5.18;;;3.20;;
74935;SDS011;63501;55.570;37.488;2022-10-17T04:57:22;4.68;;;2.90;;
74935;SDS011;63501;55.570;37.488;2022-10-17T04:59:49;5.55;;;2.95;;
74935;SDS011;63501;55.570;37.488;2022-10-17T05:02:14;4.97;;;3.00;;
74935;SDS011;63501;55.570;37.488;2022-10-17T05:04:40;5.18;;;3.15;;
74935;SDS011;63501;55.570;37.488;2022-10-17T05:07:06;6.57;;;3.03;;
74935;SDS011;63501;55.570;37.488;2022-10-17T05:09:31;6.25;;;2.63;;
74935;SDS011;63501;55.570;37.488;2022-10-17T05:11:57;6.28;;;2.75;;
74935;SDS011;63501;55.570;37.488;2022-10-17T05:14:22;6.00;;;3.40;;
74935;SDS011;63501;55.570;37.488;2022-10-17T05:16:48;5.28;;;3.03;;
74935;SDS011;63501;55.570;37.488;2022-10-17T05:19:13;6.70;;;3.00;;
74935;SDS011;63501;55.570;37.488;2022-10-17T05:21:39;4.80;;;2.65;;
74935;SDS011;63501;55.570;37.488;2022-10-17T05:24:05;4.75;;;2.90;;
74935;SDS011;63501;55.570;37.488;2022-10-17T05:26:35;6.32;;;2.83;;
74935;SDS011;63501;55.570;37.488;2022-10-17T05:29:00;5.25;;;2.95;;
74935;SDS011;63501;55.570;37.488;2022-10-17T05:31:27;4.32;;;2.80;;
74935;SDS011;63501;55.570;37.488;2022-10-17T05:33:54;5.85;;;2.88;;
74935;SDS011;63501;55.570;37.488;2022-10-17T05:36:20;5.13;;;3.00;;
74935;SDS011;63501;55.570;37.488;2022-10-17T05:38:50;5.68;;;3.08;;
74935;SDS011;63501;55.570;37.488;2022-10-17T05:41:16;4.22;;;2.45;;
74935;SDS011;63501;55.570;37.488;2022-10-17T05:43:43;4.70;;;3.08;;
74935;SDS011;63501;55.570;37.488;2022-10-17T05:46:09;7.13;;;3.08;;
74935;SDS011;63501;55.570;37.488;2022-10-17T05:48:35;5.30;;;2.95;;
74935;SDS011;63501;55.570;37.488;2022-10-17T05:51:04;4.65;;;2.88;;
74935;SDS011;63501;55.570;37.488;2022-10-17T05:53:33;5.47;;;2.90;;
74935;SDS011;63501;55.570;37.488;2022-10-17T05:58:28;5.88;;;2.92;;
74935;SDS011;63501;55.570;37.488;2022-10-17T06:01:00;5.13;;;2.75;;
74935;SDS011;63501;55.570;37.488;2022-10-17T06:03:28;5.30;;;3.15;;
74935;SDS011;63501;55.570;37.488;2022-10-17T06:05:54;4.75;;;2.65;;
74935;SDS011;63501;55.570;37.488;2022-10-17T06:08:19;5.75;;;3.00;;
74935;SDS011;63501;55.570;37.488;2022-10-17T06:10:46;7.90;;;3.05;;
74935;SDS011;63501;55.570;37.488;2022-10-17T06:13:13;5.63;;;3.50;;
74935;SDS011;63501;55.570;37.488;2022-10-17T06:15:39;4.38;;;2.90;;
74935;SDS011;63501;55.570;37.488;2022-10-17T06:18:04;5.03;;;2.80;;
74935;SDS011;63501;55.570;37.488;2022-10-17T06:20:31;6.57;;;2.83;;
74935;SDS011;63501;55.570;37.488;2022-10-17T06:22:56;6.55;;;3.45;;
74935;SDS011;63501;55.570;37.488;2022-10-17T06:25:21;4.57;;;2.72;;
74935;SDS011;63501;55.570;37.488;2022-10-17T06:27:47;6.93;;;2.53;;
74935;SDS011;63501;55.570;37.488;2022-10-17T06:30:12;4.95;;;2.70;;
74935;SDS011;63501;55.570;37.488;2022-10-17T06:32:38;5.68;;;2.80;;
74935;SDS011;63501;55.570;37.488;2022-10-17T06:35:04;6.50;;;3.10;;
74935;SDS011;63501;55.570;37.488;2022-10-17T06:37:30;4.93;;;2.53;;
74935;SDS011;63501;55.570;37.488;2022-10-17T06:39:57;6.45;;;3.22;;
74935;SDS011;63501;55.570;37.488;2022-10-17T06:42:23;5.00;;;2.92;;
74935;SDS011;63501;55.570;37.488;2022-10-17T06:44:48;5.05;;;3.00;;
74935;SDS011;63501;55.570;37.488;2022-10-17T06:47:14;6.95;;;2.90;;
74935;SDS011;63501;55.570;37.488;2022-10-17T06:49:39;4.18;;;2.90;;
74935;SDS011;63501;55.570;37.488;2022-10-17T06:52:05;6.03;;;2.78;;
74935;SDS011;63501;55.570;37.488;2022-10-17T06:54:30;6.93;;;2.70;;
74935;SDS011;63501;55.570;37.488;2022-10-17T06:56:56;8.70;;;2.95;;
74935;SDS011;63501;55.570;37.488;2022-10-17T06:59:22;6.63;;;2.92;;
74935;SDS011;63501;55.570;37.488;2022-10-17T07:01:47;5.35;;;2.75;;
74935;SDS011;63501;55.570;37.488;2022-10-17T07:04:13;3.67;;;2.65;;
74935;SDS011;63501;55.570;37.488;2022-10-17T07:06:38;5.30;;;2.72;;
74935;SDS011;63501;55.570;37.488;2022-10-17T07:09:04;3.78;;;2.35;;
74935;SDS011;63501;55.570;37.488;2022-10-17T07:11:31;6.93;;;3.05;;
74935;SDS011;63501;55.570;37.488;2022-10-17T07:13:58;4.65;;;3.08;;
74935;SDS011;63501;55.570;37.488;2022-10-17T07:16:23;4.95;;;3.00;;
74935;SDS011;63501;55.570;37.488;2022-10-17T07:18:49;5.78;;;2.80;;
74935;SDS011;63501;55.570;37.488;2022-10-17T07:21:15;5.63;;;2.90;;
74935;SDS011;63501;55.570;37.488;2022-10-17T07:23:41;4.75;;;2.67;;
74935;SDS011;63501;55.570;37.488;2022-10-17T07:26:08;5.53;;;3.13;;
74935;SDS011;63501;55.570;37.488;2022-10-17T07:28:37;5.72;;;2.75;;
74935;SDS011;63501;55.570;37.488;2022-10-17T07:31:05;5.28;;;2.97;;
74935;SDS011;63501;55.570;37.488;2022-10-17T07:33:32;6.32;;;3.20;;
74935;SDS011;63501;55.570;37.488;2022-10-17T07:35:58;5.75;;;3.03;;
74935;SDS011;63501;55.570;37.488;2022-10-17T07:38:25;6.80;;;2.90;;
74935;SDS011;63501;55.570;37.488;2022-10-17T07:40:55;5.28;;;2.95;;
74935;SDS011;63501;55.570;37.488;2022-10-17T07:43:22;6.57;;;3.08;;
74935;SDS011;63501;55.570;37.488;2022-10-17T07:45:48;6.32;;;3.00;;
74935;SDS011;63501;55.570;37.488;2022-10-17T07:48:13;6.05;;;3.08;;
74935;SDS011;63501;55.570;37.488;2022-10-17T07:50:39;7.15;;;3.17;;
74935;SDS011;63501;55.570;37.488;2022-10-17T07:53:04;6.03;;;3.30;;
74935;SDS011;63501;55.570;37.488;2022-10-17T07:55:30;6.03;;;3.72;;
74935;SDS011;63501;55.570;37.488;2022-10-17T07:57:55;5.18;;;2.85;;
74935;SDS011;63501;55.570;37.488;2022-10-17T08:00:22;4.50;;;3.10;;
74935;SDS011;63501;55.570;37.488;2022-10-17T08:02:48;7.78;;;3.03;;
74935;SDS011;63501;55.570;37.488;2022-10-17T08:05:13;7.30;;;3.67;;
74935;SDS011;63501;55.570;37.488;2022-10-17T08:07:39;5.72;;;3.17;;
74935;SDS011;63501;55.570;37.488;2022-10-17T08:10:05;5.68;;;3.15;;
74935;SDS011;63501;55.570;37.488;2022-10-17T08:12:32;5.65;;;2.88;;
74935;SDS011;63501;55.570;37.488;2022-10-17T08:14:59;7.57;;;2.75;;
74935;SDS011;63501;55.570;37.488;2022-10-17T08:17:25;6.15;;;2.97;;
74935;SDS011;63501;55.570;37.488;2022-10-17T08:19:51;7.60;;;2.70;;
74935;SDS011;63501;55.570;37.488;2022-10-17T08:22:16;6.72;;;3.10;;
74935;SDS011;63501;55.570;37.488;2022-10-17T08:24:42;5.88;;;3.00;;
74935;SDS011;63501;55.570;37.488;2022-10-17T08:27:08;6.63;;;3.30;;
74935;SDS011;63501;55.570;37.488;2022-10-17T08:29:37;4.95;;;2.60;;
74935;SDS011;63501;55.570;37.488;2022-10-17T08:32:03;6.47;;;2.95;;
74935;SDS011;63501;55.570;37.488;2022-10-17T08:34:30;7.07;;;3.35;;
74935;SDS011;63501;55.570;37.488;2022-10-17T08:36:56;5.35;;;3.00;;
74935;SDS011;63501;55.570;37.488;2022-10-17T08:39:22;6.78;;;3.35;;
74935;SDS011;63501;55.570;37.488;2022-10-17T08:47:23;8.30;;;3.80;;
74935;SDS011;63501;55.570;37.488;2022-10-17T08:50:00;8.93;;;3.55;;
74935;SDS011;63501;55.570;37.488;2022-10-17T08:52:41;6.35;;;3.40;;
74935;SDS011;63501;55.570;37.488;2022-10-17T08:55:15;10.20;;;3.75;;
74935;SDS011;63501;55.570;37.488;2022-10-17T08:57:42;9.18;;;3.67;;
74935;SDS011;63501;55.570;37.488;2022-10-17T09:00:27;7.45;;;3.55;;
74935;SDS011;63501;55.570;37.488;2022-10-17T09:03:13;6.28;;;3.53;;
74935;SDS011;63501;55.570;37.488;2022-10-17T09:06:11;8.20;;;4.43;;
74935;SDS011;63501;55.570;37.488;2022-10-17T09:08:46;6.47;;;3.85;;
74935;SDS011;63501;55.570;37.488;2022-10-17T09:11:39;6.45;;;3.78;;
74935;SDS011;63501;55.570;37.488;2022-10-17T09:19:23;7.95;;;3.90;;
74935;SDS011;63501;55.570;37.488;2022-10-17T09:24:45;10.38;;;4.68;;
74935;SDS011;63501;55.570;37.488;2022-10-17T09:27:17;10.77;;;5.80;;
74935;SDS011;63501;55.570;37.488;2022-10-17T09:29:45;10.68;;;5.13;;
74935;SDS011;63501;55.570;37.488;2022-10-17T09:32:16;11.45;;;5.97;;
74935;SDS011;63501;55.570;37.488;2022-10-17T09:34:45;12.75;;;6.50;;
74935;SDS011;63501;55.570;37.488;2022-10-17T09:37:12;16.02;;;8.00;;
74935;SDS011;63501;55.570;37.488;2022-10-17T09:39:39;11.38;;;6.05;;
74935;SDS011;63501;55.570;37.488;2022-10-17T09:42:07;10.80;;;5.93;;
74935;SDS011;63501;55.570;37.488;2022-10-17T09:44:46;12.15;;;6.00;;
74935;SDS011;63501;55.570;37.488;2022-10-17T09:50:02;12.70;;;6.45;;
74935;SDS011;63501;55.570;37.488;2022-10-17T09:52:34;15.48;;;6.85;;
74935;SDS011;63501;55.570;37.488;2022-10-17T09:55:05;12.75;;;6.47;;
74935;SDS011;63501;55.570;37.488;2022-10-17T09:57:57;15.55;;;6.90;;
74935;SDS011;63501;55.570;37.488;2022-10-17T10:00:25;13.85;;;7.40;;
74935;SDS011;63501;55.570;37.488;2022-10-17T10:05:36;13.10;;;7.25;;
74935;SDS011;63501;55.570;37.488;2022-10-17T10:08:04;15.65;;;7.00;;
74935;SDS011;63501;55.570;37.488;2022-10-17T10:10:36;14.77;;;6.47;;
74935;SDS011;63501;55.570;37.488;2022-10-17T10:15:42;13.93;;;7.57;;
74935;SDS011;63501;55.570;37.488;2022-10-17T10:18:25;10.50;;;6.20;;
74935;SDS011;63501;55.570;37.488;2022-10-17T10:21:04;14.73;;;7.57;;
74935;SDS011;63501;55.570;37.488;2022-10-17T10:23:41;13.77;;;7.15;;
74935;SDS011;63501;55.570;37.488;2022-10-17T10:29:00;14.63;;;8.02;;
74935;SDS011;63501;55.570;37.488;2022-10-17T10:31:38;14.18;;;7.53;;
74935;SDS011;63501;55.570;37.488;2022-10-17T10:34:47;16.48;;;7.75;;
74935;SDS011;63501;55.570;37.488;2022-10-17T10:36:58;13.63;;;7.53;;
74935;SDS011;63501;55.570;37.488;2022-10-17T10:41:59;13.30;;;7.82;;
74935;SDS011;63501;55.570;37.488;2022-10-17T10:44:27;11.45;;;7.30;;
74935;SDS011;63501;55.570;37.488;2022-10-17T10:49:38;12.35;;;7.00;;
74935;SDS011;63501;55.570;37.488;2022-10-17T10:52:04;12.10;;;7.13;;
74935;SDS011;63501;55.570;37.488;2022-10-17T10:54:32;13.27;;;7.78;;
74935;SDS011;63501;55.570;37.488;2022-10-17T10:57:03;10.85;;;6.35;;
74935;SDS011;63501;55.570;37.488;2022-10-17T11:12:43;15.00;;;7.32;;
74935;SDS011;63501;55.570;37.488;2022-10-17T11:15:30;11.10;;;6.53;;
74935;SDS011;63501;55.570;37.488;2022-10-17T11:18:05;11.60;;;6.32;;
74935;SDS011;63501;55.570;37.488;2022-10-17T11:26:12;13.73;;;6.45;;
74935;SDS011;63501;55.570;37.488;2022-10-17T11:28:50;10.85;;;6.50;;
74935;SDS011;63501;55.570;37.488;2022-10-17T11:31:17;14.20;;;7.43;;
74935;SDS011;63501;55.570;37.488;2022-10-17T11:33:48;11.57;;;6.35;;
74935;SDS011;63501;55.570;37.488;2022-10-17T11:36:19;11.25;;;7.57;;
74935;SDS011;63501;55.570;37.488;2022-10-17T11:44:00;14.15;;;7.40;;
74935;SDS011;63501;55.570;37.488;2022-10-17T11:46:36;13.43;;;7.15;;
74935;SDS011;63501;55.570;37.488;2022-10-17T11:49:10;16.35;;;8.07;;
74935;SDS011;63501;55.570;37.488;2022-10-17T11:51:44;12.93;;;6.82;;
74935;SDS011;63501;55.570;37.488;2022-10-17T11:54:32;13.38;;;6.57;;
74935;SDS011;63501;55.570;37.488;2022-10-17T11:59:47;14.60;;;8.40;;
74935;SDS011;63501;55.570;37.488;2022-10-17T12:05:30;11.80;;;6.57;;
74935;SDS011;63501;55.570;37.488;2022-10-17T12:18:47;14.10;;;8.30;;
74935;SDS011;63501;55.570;37.488;2022-10-17T12:21:53;14.88;;;7.97;;
74935;SDS011;63501;55.570;37.488;2022-10-17T12:24:36;18.10;;;8.15;;
74935;SDS011;63501;55.570;37.488;2022-10-17T12:27:39;17.40;;;7.72;;
74935;SDS011;63501;55.570;37.488;2022-10-17T12:32:36;15.45;;;8.55;;
74935;SDS011;63501;55.570;37.488;2022-10-17T12:35:18;15.07;;;8.30;;
74935;SDS011;63501;55.570;37.488;2022-10-17T12:51:23;15.05;;;7.93;;
74935;SDS011;63501;55.570;37.488;2022-10-17T12:56:48;15.70;;;7.53;;
74935;SDS011;63501;55.570;37.488;2022-10-17T12:59:19;14.25;;;6.53;;
74935;SDS011;63501;55.570;37.488;2022-10-17T13:01:49;16.95;;;8.75;;
74935;SDS011;63501;55.570;37.488;2022-10-17T13:04:17;16.63;;;8.13;;
74935;SDS011;63501;55.570;37.488;2022-10-17T13:06:45;17.70;;;8.73;;
74935;SDS011;63501;55.570;37.488;2022-10-17T13:09:26;16.40;;;8.43;;
74935;SDS011;63501;55.570;37.488;2022-10-17T13:11:52;19.90;;;10.05;;
74935;SDS011;63501;55.570;37.488;2022-10-17T13:14:20;16.60;;;8.00;;
74935;SDS011;63501;55.570;37.488;2022-10-17T13:19:23;14.55;;;6.93;;
74935;SDS011;63501;55.570;37.488;2022-10-17T13:21:58;17.17;;;8.93;;
74935;SDS011;63501;55.570;37.488;2022-10-17T13:24:30;15.48;;;9.10;;
74935;SDS011;63501;55.570;37.488;2022-10-17T13:26:59;13.05;;;7.07;;
74935;SDS011;63501;55.570;37.488;2022-10-17T13:29:26;17.23;;;9.40;;
74935;SDS011;63501;55.570;37.488;2022-10-17T13:32:03;15.48;;;7.90;;
74935;SDS011;63501;55.570;37.488;2022-10-17T13:34:30;18.15;;;8.35;;
74935;SDS011;63501;55.570;37.488;2022-10-17T13:36:58;15.10;;;7.65;;
74935;SDS011;63501;55.570;37.488;2022-10-17T13:39:34;17.48;;;8.65;;
74935;SDS011;63501;55.570;37.488;2022-10-17T13:42:03;18.95;;;8.23;;
74935;SDS011;63501;55.570;37.488;2022-10-17T13:44:31;15.52;;;7.93;;
74935;SDS011;63501;55.570;37.488;2022-10-17T13:46:58;17.50;;;9.52;;
74935;SDS011;63501;55.570;37.488;2022-10-17T13:51:59;17.40;;;7.78;;
74935;SDS011;63501;55.570;37.488;2022-10-17T13:54:42;17.73;;;9.73;;
74935;SDS011;63501;55.570;37.488;2022-10-17T13:59:58;16.05;;;8.07;;
74935;SDS011;63501;55.570;37.488;2022-10-17T14:02:27;17.55;;;8.77;;
74935;SDS011;63501;55.570;37.488;2022-10-17T14:05:13;17.63;;;8.20;;
74935;SDS011;63501;55.570;37.488;2022-10-17T14:08:00;14.27;;;7.45;;
74935;SDS011;63501;55.570;37.488;2022-10-17T14:10:34;18.23;;;6.93;;
74935;SDS011;63501;55.570;37.488;2022-10-17T14:13:02;15.05;;;8.13;;
74935;SDS011;63501;55.570;37.488;2022-10-17T14:15:31;16.23;;;8.15;;
74935;SDS011;63501;55.570;37.488;2022-10-17T14:18:00;15.25;;;7.72;;
74935;SDS011;63501;55.570;37.488;2022-10-17T14:20:28;16.75;;;7.80;;
74935;SDS011;63501;55.570;37.488;2022-10-17T14:22:57;15.05;;;8.32;;
74935;SDS011;63501;55.570;37.488;2022-10-17T14:30:41;18.48;;;8.93;;
74935;SDS011;63501;55.570;37.488;2022-10-17T14:33:17;18.90;;;8.32;;
74935;SDS011;63501;55.570;37.488;2022-10-17T14:35:48;19.52;;;9.07;;
74935;SDS011;63501;55.570;37.488;2022-10-17T14:38:15;17.25;;;7.90;;
74935;SDS011;63501;55.570;37.488;2022-10-17T14:40:48;16.70;;;7.80;;
74935;SDS011;63501;55.570;37.488;2022-10-17T14:43:18;16.45;;;8.23;;
74935;SDS011;63501;55.570;37.488;2022-10-17T14:45:46;17.15;;;8.65;;
74935;SDS011;63501;55.570;37.488;2022-10-17T14:48:13;16.33;;;8.77;;
74935;SDS011;63501;55.570;37.488;2022-10-17T14:53:35;17.95;;;9.43;;
74935;SDS011;63501;55.570;37.488;2022-10-17T14:56:02;19.38;;;9.10;;
74935;SDS011;63501;55.570;37.488;2022-10-17T14:58:33;17.70;;;8.77;;
74935;SDS011;63501;55.570;37.488;2022-10-17T15:00:59;19.15;;;8.63;;
74935;SDS011;63501;55.570;37.488;2022-10-17T15:03:26;15.15;;;8.88;;
74935;SDS011;63501;55.570;37.488;2022-10-17T15:05:52;18.33;;;8.43;;
74935;SDS011;63501;55.570;37.488;2022-10-17T15:08:19;21.98;;;7.82;;
74935;SDS011;63501;55.570;37.488;2022-10-17T15:10:47;16.92;;;8.50;;
74935;SDS011;63501;55.570;37.488;2022-10-17T15:13:13;18.33;;;9.27;;
74935;SDS011;63501;55.570;37.488;2022-10-17T15:15:39;20.17;;;8.10;;
74935;SDS011;63501;55.570;37.488;2022-10-17T15:18:06;18.50;;;8.93;;
74935;SDS011;63501;55.570;37.488;2022-10-17T15:20:34;20.10;;;9.30;;
74935;SDS011;63501;55.570;37.488;2022-10-17T15:23:00;15.20;;;8.35;;
74935;SDS011;63501;55.570;37.488;2022-10-17T15:25:26;19.02;;;9.02;;
74935;SDS011;63501;55.570;37.488;2022-10-17T15:27:54;15.60;;;8.63;;
74935;SDS011;63501;55.570;37.488;2022-10-17T15:30:22;19.88;;;9.93;;
74935;SDS011;63501;55.570;37.488;2022-10-17T15:32:48;21.08;;;9.10;;
74935;SDS011;63501;55.570;37.488;2022-10-17T15:35:14;16.15;;;8.52;;
74935;SDS011;63501;55.570;37.488;2022-10-17T15:37:40;16.40;;;9.10;;
74935;SDS011;63501;55.570;37.488;2022-10-17T15:40:13;19.73;;;8.85;;
74935;SDS011;63501;55.570;37.488;2022-10-17T15:42:40;25.45;;;10.30;;
74935;SDS011;63501;55.570;37.488;2022-10-17T15:45:07;18.67;;;8.68;;
74935;SDS011;63501;55.570;37.488;2022-10-17T15:47:34;19.17;;;9.93;;
74935;SDS011;63501;55.570;37.488;2022-10-17T15:50:01;19.65;;;9.10;;
74935;SDS011;63501;55.570;37.488;2022-10-17T15:52:28;13.30;;;7.25;;
74935;SDS011;63501;55.570;37.488;2022-10-17T15:54:54;17.08;;;8.93;;
74935;SDS011;63501;55.570;37.488;2022-10-17T15:57:21;18.45;;;9.27;;
74935;SDS011;63501;55.570;37.488;2022-10-17T15:59:51;16.73;;;8.75;;
74935;SDS011;63501;55.570;37.488;2022-10-17T16:02:18;17.67;;;9.27;;
74935;SDS011;63501;55.570;37.488;2022-10-17T16:04:45;18.92;;;8.75;;
74935;SDS011;63501;55.570;37.488;2022-10-17T16:07:12;16.83;;;8.50;;
74935;SDS011;63501;55.570;37.488;2022-10-17T16:09:38;14.70;;;8.00;;
74935;SDS011;63501;55.570;37.488;2022-10-17T16:12:04;17.75;;;7.80;;
74935;SDS011;63501;55.570;37.488;2022-10-17T16:14:31;16.77;;;8.50;;
74935;SDS011;63501;55.570;37.488;2022-10-17T16:16:57;16.50;;;7.72;;
74935;SDS011;63501;55.570;37.488;2022-10-17T16:19:24;14.57;;;7.57;;
74935;SDS011;63501;55.570;37.488;2022-10-17T16:21:54;14.02;;;7.35;;
74935;SDS011;63501;55.570;37.488;2022-10-17T16:24:21;17.60;;;9.18;;
74935;SDS011;63501;55.570;37.488;2022-10-17T16:26:47;14.65;;;7.93;;
74935;SDS011;63501;55.570;37.488;2022-10-17T16:29:13;18.25;;;8.63;;
74935;SDS011;63501;55.570;37.488;2022-10-17T16:31:39;17.00;;;8.80;;
74935;SDS011;63501;55.570;37.488;2022-10-17T16:34:08;17.15;;;9.35;;
74935;SDS011;63501;55.570;37.488;2022-10-17T16:36:35;17.02;;;8.93;;
74935;SDS011;63501;55.570;37.488;2022-10-17T16:39:00;12.80;;;7.68;;
74935;SDS011;63501;55.570;37.488;2022-10-17T16:41:27;17.92;;;8.40;;
74935;SDS011;63501;55.570;37.488;2022-10-17T16:43:55;14.38;;;8.48;;
74935;SDS011;63501;55.570;37.488;2022-10-17T16:46:22;17.80;;;9.32;;
74935;SDS011;63501;55.570;37.488;2022-10-17T16:48:49;18.58;;;9.70;;
74935;SDS011;63501;55.570;37.488;2022-10-17T16:51:16;20.00;;;8.30;;
74935;SDS011;63501;55.570;37.488;2022-10-17T16:53:43;16.55;;;7.95;;
74935;SDS011;63501;55.570;37.488;2022-10-17T16:56:10;14.75;;;8.00;;